Time;durP1;ratioP1;P1;durP2;ratioP2;P2;SDS_P1;SDS_P2;PMS_P1;PMS_P2;Temp;Humidity;BMP_temperature;BMP_pressure;BME280_temperature;BME280_humidity;BME280_pressure;Samples;Min_cycle;Max_cycle;Signal;HPM_P1;HPM_P2
2021/01/01 00:01:04;;;;;;;72.15;30.52;;;;;;;-0.82;92.75;95495.94;5004364;28;20125;-66
2021/01/01 00:03:29;;;;;;;52.70;24.90;;;;;;;-0.83;92.88;95489.78;4992168;28;20042;-67
2021/01/01 00:05:54;;;;;;;40.97;22.15;;;;;;;-0.86;92.71;95495.00;5013864;28;20049;-67
2021/01/01 00:08:20;;;;;;;39.88;21.23;;;;;;;-0.93;92.89;95492.03;5013039;28;20468;-66
2021/01/01 00:10:45;;;;;;;38.05;19.05;;;;;;;-0.92;92.93;95493.59;5022906;28;20053;-65
2021/01/01 00:13:11;;;;;;;38.20;18.40;;;;;;;-0.88;92.55;95497.19;5015222;28;20064;-65
2021/01/01 00:15:36;;;;;;;35.95;18.42;;;;;;;-1.06;92.84;95493.78;5023328;28;20037;-67
2021/01/01 00:18:01;;;;;;;32.53;18.17;;;;;;;-1.01;93.11;95502.47;5026481;28;20072;-68
2021/01/01 00:20:27;;;;;;;34.83;19.25;;;;;;;-0.96;93.50;95488.06;5024566;28;20038;-67
2021/01/01 00:22:52;;;;;;;31.92;17.50;;;;;;;-0.94;93.67;95483.16;5007753;28;20054;-65
2021/01/01 00:25:18;;;;;;;30.58;16.70;;;;;;;-1.05;93.63;95490.00;4997466;28;20061;-66
2021/01/01 00:27:43;;;;;;;31.27;15.90;;;;;;;-1.01;93.51;95486.34;5017217;28;20050;-66
2021/01/01 00:30:13;;;;;;;27.73;16.25;;;;;;;-0.88;94.01;95492.63;4990895;28;20509;-66
2021/01/01 00:32:42;;;;;;;33.03;16.90;;;;;;;-0.82;93.59;95487.84;5019387;28;20306;-67
2021/01/01 00:35:10;;;;;;;28.38;16.20;;;;;;;-0.65;93.31;95493.16;5004475;28;20045;-67
2021/01/01 00:37:37;;;;;;;26.85;15.20;;;;;;;-0.56;92.07;95487.72;5003197;28;20042;-66
2021/01/01 00:40:07;;;;;;;30.77;17.83;;;;;;;-0.63;91.94;95484.75;5018917;28;20049;-65
2021/01/01 00:42:37;;;;;;;30.23;16.63;;;;;;;-0.69;92.16;95492.22;5001766;28;20049;-67
2021/01/01 00:45:05;;;;;;;;;;;;;;;-0.64;92.45;95485.88;5020944;28;20045;-65
2021/01/01 00:47:31;;;;;;;32.20;16.70;;;;;;;-0.60;92.85;95492.97;5037026;28;20330;-66
2021/01/01 00:49:57;;;;;;;33.83;17.10;;;;;;;-0.61;92.58;95491.41;5018179;28;20046;-67
2021/01/01 00:52:22;;;;;;;37.42;18.38;;;;;;;-0.50;92.81;95491.03;4998386;28;20053;-66
2021/01/01 00:54:47;;;;;;;33.67;16.80;;;;;;;-0.51;92.52;95484.06;5011877;28;20147;-67
2021/01/01 00:57:13;;;;;;;30.67;17.00;;;;;;;-0.44;92.64;95492.41;5005869;28;20037;-66
2021/01/01 00:59:39;;;;;;;30.85;16.13;;;;;;;-0.50;93.02;95491.03;5008045;28;20084;-66
2021/01/01 01:02:04;;;;;;;30.73;15.80;;;;;;;-0.51;93.14;95486.75;5006323;28;20055;-65
2021/01/01 01:04:30;;;;;;;29.42;15.05;;;;;;;-0.29;92.95;95494.56;5013809;28;20115;-66
2021/01/01 01:06:55;;;;;;;29.77;15.75;;;;;;;-0.38;92.94;95493.78;5016154;28;20049;-66
2021/01/01 01:09:20;;;;;;;27.48;14.70;;;;;;;-0.45;92.35;95498.91;4986287;28;20541;-66
2021/01/01 01:11:46;;;;;;;28.98;14.57;;;;;;;-0.47;92.75;95496.56;4980674;28;20050;-66
2021/01/01 01:14:11;;;;;;;27.13;16.05;;;;;;;-0.54;93.16;95500.84;5007528;28;20131;-67
2021/01/01 01:16:37;;;;;;;33.22;16.35;;;;;;;-0.53;93.28;95505.13;4997100;28;20422;-67
2021/01/01 01:19:03;;;;;;;30.98;16.10;;;;;;;-0.59;93.23;95507.22;5019220;28;20494;-65
2021/01/01 01:21:28;;;;;;;36.67;16.73;;;;;;;-0.55;93.47;95500.06;4992148;28;20045;-67
2021/01/01 01:23:56;;;;;;;27.08;14.95;;;;;;;-0.46;93.80;95508.88;4999532;28;20038;-67
2021/01/01 01:26:22;;;;;;;24.40;14.68;;;;;;;-0.47;93.51;95506.50;5016233;28;20132;-66
2021/01/01 01:28:48;;;;;;;30.67;16.17;;;;;;;-0.41;93.77;95507.91;5016949;28;20132;-66
2021/01/01 01:31:13;;;;;;;29.08;15.48;;;;;;;-0.39;93.49;95513.75;5003844;28;20045;-67
2021/01/01 01:33:39;;;;;;;32.15;15.65;;;;;;;-0.46;92.97;95524.25;5018404;28;20073;-67
2021/01/01 01:36:05;;;;;;;29.65;15.18;;;;;;;-0.54;93.30;95530.44;5015585;28;20042;-66
2021/01/01 01:38:31;;;;;;;30.58;15.57;;;;;;;-0.59;93.30;95531.41;5019874;28;20052;-67
2021/01/01 01:40:56;;;;;;;28.63;15.40;;;;;;;-0.62;93.79;95532.06;4997917;28;20042;-67
2021/01/01 01:43:23;;;;;;;27.10;15.00;;;;;;;-0.60;94.13;95537.91;5003153;28;20084;-67
2021/01/01 01:45:49;;;;;;;30.60;15.95;;;;;;;-0.57;93.76;95533.78;5009795;28;20401;-66
2021/01/01 01:48:25;;;;;;;28.42;14.98;;;;;;;-0.49;93.64;95532.94;5005334;28;20045;-66
2021/01/01 01:50:50;;;;;;;31.02;16.02;;;;;;;-0.31;94.10;95536.34;5012433;28;20068;-66
2021/01/01 01:53:16;;;;;;;30.08;14.82;;;;;;;-0.34;93.14;95532.41;5012513;28;20072;-66
2021/01/01 01:55:42;;;;;;;34.05;15.40;;;;;;;-0.11;91.50;95532.91;5000099;28;20928;-66
2021/01/01 01:58:07;;;;;;;28.33;15.32;;;;;;;-0.05;91.23;95536.22;5012825;28;20045;-65
2021/01/01 02:00:43;;;;;;;27.50;13.88;;;;;;;-0.26;91.50;95541.53;5013635;28;20050;-65
2021/01/01 02:03:16;;;;;;;28.70;13.57;;;;;;;-0.20;91.58;95540.22;5008106;28;20069;-66
2021/01/01 02:05:42;;;;;;;30.63;15.48;;;;;;;-0.29;92.11;95537.63;4994324;28;20172;-66
2021/01/01 02:08:08;;;;;;;29.60;14.43;;;;;;;-0.31;91.99;95545.19;5013410;28;20153;-67
2021/01/01 02:10:33;;;;;;;29.92;16.95;;;;;;;-0.42;92.68;95552.84;5002114;28;20608;-66
2021/01/01 02:12:59;;;;;;;30.35;14.68;;;;;;;-0.48;93.24;95556.06;5015836;28;20045;-67
2021/01/01 02:15:27;;;;;;;31.92;15.05;;;;;;;-0.31;92.75;95558.66;5009990;28;20625;-66
2021/01/01 02:17:54;;;;;;;30.05;15.40;;;;;;;-0.25;92.68;95568.13;5022451;28;20045;-67
2021/01/01 02:20:19;;;;;;;29.90;15.13;;;;;;;-0.20;92.29;95565.25;5013404;28;20053;-67
2021/01/01 02:22:44;;;;;;;33.00;14.70;;;;;;;-0.22;92.71;95569.38;5009127;28;20211;-67
2021/01/01 02:25:11;;;;;;;32.92;15.48;;;;;;;-0.26;92.73;95574.59;4998261;28;20095;-67
2021/01/01 02:27:37;;;;;;;30.08;14.63;;;;;;;-0.35;92.35;95579.25;4983062;28;20038;-66
2021/01/01 02:30:05;;;;;;;24.73;14.70;;;;;;;-0.35;92.65;95583.84;5002550;28;20041;-66
2021/01/01 02:32:31;;;;;;;32.85;16.13;;;;;;;-0.31;93.03;95585.56;4982623;28;20393;-66
2021/01/01 02:34:57;;;;;;;34.63;15.68;;;;;;;-0.22;92.99;95580.13;5017593;28;20033;-66
2021/01/01 02:37:22;;;;;;;31.60;16.35;;;;;;;-0.15;92.71;95576.94;5004488;28;20774;-66
2021/01/01 02:39:48;;;;;;;27.80;15.20;;;;;;;-0.17;92.35;95582.66;5018644;28;20041;-66
2021/01/01 02:42:16;;;;;;;27.85;14.68;;;;;;;-0.18;92.22;95586.47;4977984;28;20046;-66
2021/01/01 02:44:42;;;;;;;28.00;14.55;;;;;;;-0.15;92.37;95582.31;4999806;28;20045;-66
2021/01/01 02:47:08;;;;;;;41.10;18.00;;;;;;;-0.14;92.45;95581.22;5003658;28;20050;-65
2021/01/01 02:49:34;;;;;;;29.63;14.60;;;;;;;-0.07;92.93;95587.66;4999457;28;20498;-67
2021/01/01 02:52:01;;;;;;;28.98;14.73;;;;;;;-0.02;92.10;95586.69;5024246;28;20050;-66
2021/01/01 02:54:26;;;;;;;30.85;16.65;;;;;;;0.03;92.26;95578.41;5018913;28;20049;-66
2021/01/01 02:56:52;;;;;;;28.73;14.13;;;;;;;0.07;92.13;95573.16;5026537;28;20114;-66
2021/01/01 02:59:18;;;;;;;26.13;14.65;;;;;;;0.10;91.67;95570.63;5017559;28;20912;-66
2021/01/01 03:01:44;;;;;;;26.35;13.07;;;;;;;-0.26;91.39;95571.91;5018181;28;20075;-66
2021/01/01 03:04:10;;;;;;;28.85;14.63;;;;;;;-0.54;92.69;95563.53;5018078;28;20057;-66
2021/01/01 03:06:36;;;;;;;31.20;15.43;;;;;;;-0.73;93.54;95565.81;5023218;28;20195;-66
2021/01/01 03:09:03;;;;;;;42.78;19.65;;;;;;;-0.78;93.53;95572.13;5023769;28;20042;-66
2021/01/01 03:11:28;;;;;;;32.50;16.75;;;;;;;-0.76;94.04;95564.53;4987478;28;20052;-66
2021/01/01 03:13:54;;;;;;;32.90;16.13;;;;;;;-0.77;94.19;95563.75;5019401;28;20406;-66
2021/01/01 03:16:19;;;;;;;35.90;16.52;;;;;;;-0.92;95.30;95558.09;5003423;28;20102;-66
2021/01/01 03:18:44;;;;;;;36.60;16.73;;;;;;;-0.94;95.35;95554.94;5004438;28;20045;-66
2021/01/01 03:21:10;;;;;;;35.80;16.83;;;;;;;-0.82;95.31;95560.44;4999907;28;20195;-66
2021/01/01 03:23:35;;;;;;;35.25;17.83;;;;;;;-0.63;95.08;95558.16;4997974;28;20073;-66
2021/01/01 03:26:01;;;;;;;44.00;21.08;;;;;;;-0.54;94.98;95560.84;5005504;28;20052;-66
2021/01/01 03:28:27;;;;;;;38.92;18.50;;;;;;;-0.49;94.59;95566.00;5009211;28;20045;-66
2021/01/01 03:30:53;;;;;;;34.22;16.85;;;;;;;-0.52;94.21;95568.56;4995127;28;20045;-65
2021/01/01 03:33:19;;;;;;;36.35;16.70;;;;;;;-0.49;94.56;95573.28;5015694;28;20395;-65
2021/01/01 03:35:44;;;;;;;33.55;15.77;;;;;;;-0.57;94.31;95566.84;5011495;28;20052;-65
2021/01/01 03:38:10;;;;;;;35.35;16.45;;;;;;;-0.60;94.39;95565.56;4981117;28;20038;-64
2021/01/01 03:40:36;;;;;;;30.48;14.25;;;;;;;-0.46;94.51;95578.03;5003134;28;20140;-66
2021/01/01 03:43:01;;;;;;;30.52;15.00;;;;;;;-0.33;94.65;95570.84;5013576;28;20068;-64
2021/01/01 03:45:28;;;;;;;26.88;14.02;;;;;;;-0.32;93.91;95564.38;5009347;28;20441;-64
2021/01/01 03:47:54;;;;;;;30.20;13.88;;;;;;;-0.29;94.25;95567.22;4999591;28;20129;-65
2021/01/01 03:50:20;;;;;;;26.33;13.63;;;;;;;-0.28;93.62;95568.00;4992937;28;20132;-65
2021/01/01 03:52:46;;;;;;;30.08;14.43;;;;;;;-0.34;93.79;95562.00;5008295;28;20040;-65
2021/01/01 03:55:11;;;;;;;32.35;14.68;;;;;;;-0.59;94.02;95577.91;5030610;28;20042;-65
2021/01/01 03:57:37;;;;;;;33.00;16.38;;;;;;;-0.70;94.17;95571.31;5018913;28;20108;-65
2021/01/01 04:00:09;;;;;;;33.88;16.00;;;;;;;-0.68;94.81;95573.69;5003257;28;20499;-65
2021/01/01 04:02:35;;;;;;;30.27;15.43;;;;;;;-0.64;94.61;95580.78;4985529;28;20152;-65
2021/01/01 04:05:00;;;;;;;29.95;16.05;;;;;;;-0.57;94.57;95576.81;5022148;28;20529;-66
2021/01/01 04:07:26;;;;;;;31.67;16.00;;;;;;;-0.57;94.76;95577.59;5017333;28;20445;-65
2021/01/01 04:09:51;;;;;;;31.63;15.45;;;;;;;-0.74;94.75;95575.75;5021534;28;20034;-66
2021/01/01 04:12:18;;;;;;;32.10;16.38;;;;;;;-0.73;95.28;95571.97;5013505;28;20052;-65
2021/01/01 04:14:44;;;;;;;39.80;17.95;;;;;;;-0.98;95.30;95571.69;5018229;28;20525;-66
2021/01/01 04:17:09;;;;;;;38.45;17.08;;;;;;;-1.16;96.54;95573.63;5009488;28;20056;-66
2021/01/01 04:19:35;;;;;;;36.80;18.27;;;;;;;-1.25;97.01;95566.69;5029887;28;20061;-66
2021/01/01 04:22:00;;;;;;;42.45;20.48;;;;;;;-1.23;97.68;95565.25;5040685;28;20048;-66
2021/01/01 04:24:26;;;;;;;50.13;21.33;;;;;;;-1.15;97.90;95569.06;5016378;28;20049;-66
2021/01/01 04:26:52;;;;;;;44.63;19.90;;;;;;;-1.04;97.77;95556.88;5031344;28;20091;-66
2021/01/01 04:29:17;;;;;;;38.80;17.40;;;;;;;-0.92;97.81;95575.00;5017862;28;20381;-66
2021/01/01 04:31:43;;;;;;;34.78;17.25;;;;;;;-0.69;97.56;95580.19;5008497;28;20510;-65
2021/01/01 04:34:09;;;;;;;43.33;19.35;;;;;;;-0.50;97.18;95588.66;4991680;28;20560;-65
2021/01/01 04:36:35;;;;;;;40.95;17.92;;;;;;;-0.43;97.10;95591.63;4984316;28;20044;-65
2021/01/01 04:39:01;;;;;;;39.13;16.88;;;;;;;-0.52;96.49;95582.81;4984006;28;20049;-65
2021/01/01 04:41:27;;;;;;;33.08;16.13;;;;;;;-0.51;96.57;95579.00;4996344;28;20529;-66
2021/01/01 04:43:53;;;;;;;39.03;17.95;;;;;;;-0.47;96.00;95588.03;4998672;28;20133;-66
2021/01/01 04:46:19;;;;;;;38.03;18.60;;;;;;;-0.34;95.71;95591.59;4993466;28;20038;-65
2021/01/01 04:48:46;;;;;;;45.05;20.48;;;;;;;-0.33;95.61;95584.31;4997870;28;20041;-66
2021/01/01 04:51:13;;;;;;;40.50;19.20;;;;;;;-0.26;95.61;95588.06;4977848;28;20049;-66
2021/01/01 04:53:40;;;;;;;30.10;16.52;;;;;;;-0.16;95.37;95580.72;5001806;28;20089;-64
2021/01/01 04:56:07;;;;;;;31.73;15.80;;;;;;;-0.17;94.96;95585.34;4997184;28;20049;-65
2021/01/01 04:58:33;;;;;;;30.42;16.13;;;;;;;-0.22;94.45;95589.03;5001474;28;20561;-66
2021/01/01 05:00:58;;;;;;;32.88;15.07;;;;;;;-0.19;94.46;95587.56;5001319;28;20664;-66
2021/01/01 05:03:24;;;;;;;31.27;15.15;;;;;;;-0.12;94.63;95573.59;4996943;28;20050;-68
2021/01/01 05:05:51;;;;;;;32.70;16.85;;;;;;;-0.11;94.29;95581.38;4978870;28;20430;-64
2021/01/01 05:08:17;;;;;;;30.10;15.88;;;;;;;-0.08;94.38;95591.47;4997378;28;20046;-64
2021/01/01 05:10:44;;;;;;;31.77;15.85;;;;;;;-0.02;94.70;95592.88;4999027;28;20695;-64
2021/01/01 05:13:14;;;;;;;29.77;15.20;;;;;;;-0.24;94.21;95596.59;4992728;28;20049;-64
2021/01/01 05:15:40;;;;;;;27.80;14.45;;;;;;;-0.08;93.87;95599.53;5001069;28;20037;-64
2021/01/01 05:18:35;;;;;;;29.27;13.40;;;;;;;-0.54;94.12;95600.38;4997397;28;20420;-63
2021/01/01 05:21:02;;;;;;;30.10;14.77;;;;;;;-0.57;94.68;95609.88;4986252;28;20042;-63
2021/01/01 05:23:29;;;;;;;31.67;15.57;;;;;;;-0.70;95.71;95600.09;5000200;28;20046;-64
2021/01/01 05:26:14;;;;;;;29.05;15.40;;;;;;;-0.60;95.97;95597.06;5002286;28;20038;-65
2021/01/01 05:28:49;;;;;;;31.55;15.48;;;;;;;-0.62;95.80;95605.44;5001460;28;20093;-64
2021/01/01 05:31:28;;;;;;;34.03;15.95;;;;;;;-0.71;95.89;95612.75;5014298;28;20132;-64
2021/01/01 05:34:14;;;;;;;32.05;15.23;;;;;;;-0.73;95.88;95609.59;5015722;28;20045;-65
2021/01/01 05:36:43;;;;;;;31.40;14.73;;;;;;;-0.64;96.34;95623.03;5021304;28;20041;-65
2021/01/01 05:39:22;;;;;;;32.95;16.58;;;;;;;-0.47;96.47;95616.78;5015986;28;20069;-65
2021/01/01 05:41:53;;;;;;;32.00;15.52;;;;;;;-0.45;96.16;95625.34;5005641;28;20655;-65
2021/01/01 05:44:29;;;;;;;27.83;15.50;;;;;;;-0.50;95.93;95623.63;4996311;28;20042;-65
2021/01/01 05:46:55;;;;;;;34.45;15.30;;;;;;;-0.54;95.79;95625.38;5002168;28;20394;-65
2021/01/01 05:49:21;;;;;;;28.00;14.13;;;;;;;-0.51;96.20;95634.69;4996014;28;20038;-66
2021/01/01 05:52:25;;;;;;;33.10;15.35;;;;;;;-0.53;95.43;95629.63;5002080;28;20041;-65
2021/01/01 05:54:58;;;;;;;33.75;15.73;;;;;;;-0.59;95.92;95617.47;4919099;29;20051;-65
2021/01/01 05:57:34;;;;;;;32.35;15.80;;;;;;;-0.62;96.36;95616.22;4984063;28;20515;-65
2021/01/01 06:00:11;;;;;;;33.22;16.30;;;;;;;-0.57;95.83;95619.84;4999762;28;20042;-65
2021/01/01 06:02:38;;;;;;;31.08;16.38;;;;;;;-0.72;96.67;95631.91;4998722;28;20410;-64
2021/01/01 06:05:08;;;;;;;35.63;17.08;;;;;;;-0.86;97.54;95632.88;4994020;28;20045;-64
2021/01/01 06:07:36;;;;;;;43.72;18.42;;;;;;;-0.86;97.63;95643.63;4983401;28;20042;-64
2021/01/01 06:10:04;;;;;;;39.72;18.55;;;;;;;-0.82;97.77;95633.03;4999157;28;20053;-65
2021/01/01 06:12:34;;;;;;;43.38;18.73;;;;;;;-0.79;97.97;95635.09;4996848;28;20426;-65
2021/01/01 06:15:01;;;;;;;39.67;19.17;;;;;;;-0.75;97.79;95637.94;4997417;28;20038;-66
2021/01/01 06:17:33;;;;;;;40.17;18.15;;;;;;;-0.80;98.16;95642.34;4995260;28;20041;-66
2021/01/01 06:19:58;;;;;;;42.35;18.40;;;;;;;-0.77;97.95;95644.41;5002450;28;20486;-66
2021/01/01 06:22:29;;;;;;;46.80;20.55;;;;;;;-0.70;98.55;95646.63;4992854;28;20048;-67
2021/01/01 06:25:00;;;;;;;44.92;19.52;;;;;;;-0.73;98.02;95644.56;4996479;28;20038;-67
2021/01/01 06:27:28;;;;;;;38.00;17.58;;;;;;;-0.71;98.30;95646.94;4992085;28;20050;-66
2021/01/01 06:30:00;;;;;;;39.80;18.45;;;;;;;-0.71;98.05;95647.72;5007747;28;20132;-65
2021/01/01 06:32:25;;;;;;;44.97;18.77;;;;;;;-0.67;98.38;95650.56;5015327;28;20041;-64
2021/01/01 06:34:52;;;;;;;44.50;18.05;;;;;;;-0.67;98.11;95653.25;5017602;28;20068;-65
2021/01/01 06:37:40;;;;;;;40.40;18.02;;;;;;;-0.67;97.94;95654.03;5006445;28;20080;-65
2021/01/01 06:40:21;;;;;;;39.80;18.85;;;;;;;-0.63;98.40;95656.88;5003445;28;20054;-64
2021/01/01 06:42:58;;;;;;;43.17;18.98;;;;;;;-0.63;97.92;95671.13;5015751;28;20053;-65
2021/01/01 06:45:51;;;;;;;43.13;18.85;;;;;;;-0.56;98.11;95677.91;5001679;28;20073;-65
2021/01/01 06:48:18;;;;;;;44.38;18.30;;;;;;;-0.35;98.16;95675.31;4999133;28;20516;-65
2021/01/01 06:50:44;;;;;;;40.90;16.88;;;;;;;-0.21;98.24;95676.69;5011357;28;20391;-65
2021/01/01 06:53:11;;;;;;;41.17;18.50;;;;;;;0.01;97.71;95682.16;5012483;28;20632;-65
2021/01/01 06:55:38;;;;;;;39.13;17.13;;;;;;;0.21;96.64;95691.41;5019722;28;20041;-65
2021/01/01 06:58:05;;;;;;;33.70;16.58;;;;;;;0.28;95.69;95683.63;5013832;28;20048;-65
2021/01/01 07:00:49;;;;;;;29.25;15.23;;;;;;;0.47;92.32;95683.19;5020994;28;20103;-65
2021/01/01 07:03:29;;;;;;;30.67;14.77;;;;;;;0.05;93.31;95694.66;5014743;28;20448;-64
2021/01/01 07:06:00;;;;;;;32.85;15.43;;;;;;;-0.18;95.02;95693.31;5007874;28;20042;-64
2021/01/01 07:08:44;;;;;;;34.15;15.50;;;;;;;-0.36;96.04;95700.63;5007999;28;20055;-64
2021/01/01 07:11:12;;;;;;;30.80;16.17;;;;;;;-0.45;96.25;95704.16;5005734;28;20514;-64
2021/01/01 07:13:46;;;;;;;38.78;18.08;;;;;;;-0.52;96.61;95703.03;5013534;28;20048;-65
2021/01/01 07:16:13;;;;;;;37.72;17.13;;;;;;;-0.56;97.08;95708.28;5003207;28;20829;-65
2021/01/01 07:18:38;;;;;;;41.20;18.02;;;;;;;-0.63;96.79;95700.72;4989378;28;20191;-65
2021/01/01 07:21:09;;;;;;;32.95;16.90;;;;;;;-0.60;97.06;95710.03;5010287;28;20052;-66
2021/01/01 07:23:34;;;;;;;;;;;;;;;-0.56;97.03;95708.28;5015142;28;20050;-65
2021/01/01 07:26:00;;;;;;;31.73;15.82;;;;;;;-0.56;96.81;95716.34;5009510;28;19925;-66
2021/01/01 07:28:27;;;;;;;37.80;17.63;;;;;;;-0.57;96.65;95720.16;5026462;28;20050;-66
2021/01/01 07:30:53;;;;;;;36.85;17.08;;;;;;;-0.63;96.75;95713.34;5020099;28;20045;-65
2021/01/01 07:33:23;;;;;;;38.63;16.48;;;;;;;-0.61;96.98;95725.38;4995793;28;20077;-65
2021/01/01 07:35:50;;;;;;;41.92;17.52;;;;;;;-0.57;97.03;95725.53;5012719;28;20052;-65
2021/01/01 07:38:18;;;;;;;42.10;17.77;;;;;;;-0.50;97.05;95731.22;5005527;28;20224;-65
2021/01/01 07:40:44;;;;;;;39.83;17.55;;;;;;;-0.46;96.74;95732.16;4998577;28;20033;-65
2021/01/01 07:43:10;;;;;;;36.53;16.52;;;;;;;-0.41;96.50;95733.91;5007377;28;20045;-65
2021/01/01 07:45:35;;;;;;;37.97;17.27;;;;;;;-0.41;96.07;95740.06;4993972;28;20054;-65
2021/01/01 07:48:01;;;;;;;39.78;17.23;;;;;;;-0.40;95.64;95732.78;5004191;28;20053;-64
2021/01/01 07:50:30;;;;;;;38.78;16.17;;;;;;;-0.36;95.58;95738.31;4998062;28;20045;-66
2021/01/01 07:53:12;;;;;;;35.38;16.30;;;;;;;-0.31;95.60;95746.22;5020535;28;20045;-66
2021/01/01 07:55:39;;;;;;;35.67;15.57;;;;;;;-0.25;95.15;95753.03;5038525;28;20052;-66
2021/01/01 07:58:09;;;;;;;33.88;15.70;;;;;;;-0.26;95.29;95746.84;5024890;28;20132;-66
2021/01/01 08:00:42;;;;;;;36.58;17.88;;;;;;;-0.21;95.46;95751.28;4990109;28;20042;-66
2021/01/01 08:03:09;;;;;;;36.13;16.60;;;;;;;-0.23;95.35;95748.13;5009233;28;20041;-66
2021/01/01 08:05:36;;;;;;;31.15;14.80;;;;;;;-0.26;94.60;95754.13;4995168;28;20416;-66
2021/01/01 08:08:24;;;;;;;30.45;15.80;;;;;;;-0.08;95.26;95768.34;5020034;28;20731;-66
2021/01/01 08:10:52;;;;;;;26.77;13.60;;;;;;;0.12;95.27;95761.47;5000079;28;20049;-66
2021/01/01 08:13:20;;;;;;;32.38;14.65;;;;;;;0.09;94.34;95765.59;5006366;28;20046;-66
2021/01/01 08:15:47;;;;;;;89.63;34.13;;;;;;;-0.14;94.51;95762.34;5007479;28;20135;-64
2021/01/01 08:18:20;;;;;;;41.28;20.23;;;;;;;-0.12;94.63;95760.09;5004263;28;20402;-65
2021/01/01 08:20:47;;;;;;;36.17;15.85;;;;;;;-0.05;94.88;95767.69;5006584;28;20510;-65
2021/01/01 08:23:16;;;;;;;32.05;14.43;;;;;;;0.03;94.54;95761.50;5005454;28;20052;-65
2021/01/01 08:25:42;;;;;;;32.85;14.95;;;;;;;-0.02;94.47;95762.47;5017592;28;20045;-64
2021/01/01 08:28:09;;;;;;;30.65;14.43;;;;;;;-0.07;94.71;95757.25;5004966;28;20064;-65
2021/01/01 08:30:37;;;;;;;43.25;27.33;;;;;;;-0.21;95.53;95756.66;5011787;28;20675;-65
2021/01/01 08:33:08;;;;;;;36.47;17.48;;;;;;;-0.20;95.54;95763.59;5004795;28;20041;-65
2021/01/01 08:35:33;;;;;;;31.15;15.38;;;;;;;-0.17;95.13;95760.28;4993393;28;20522;-65
2021/01/01 08:37:59;;;;;;;42.05;22.35;;;;;;;-0.08;95.54;95757.56;5000806;28;20046;-65
2021/01/01 08:40:24;;;;;;;42.10;22.35;;;;;;;0.01;95.44;95760.25;5000116;28;20050;-65
2021/01/01 08:42:54;;;;;;;40.25;19.02;;;;;;;0.07;95.34;95770.50;4999707;28;20045;-65
2021/01/01 08:45:29;;;;;;;53.00;23.25;;;;;;;0.15;94.80;95775.06;5011466;28;20068;-65
2021/01/01 08:47:54;;;;;;;36.38;18.48;;;;;;;0.24;94.21;95774.28;5023506;28;20060;-65
2021/01/01 08:50:24;;;;;;;29.67;14.95;;;;;;;0.36;93.86;95760.88;5012199;28;20041;-65
2021/01/01 08:53:00;;;;;;;;;;;;;;;0.42;94.17;95772.31;5020500;28;20107;-65
2021/01/01 08:55:26;;;;;;;33.85;14.88;;;;;;;0.26;93.35;95770.13;5008321;28;19913;-65
2021/01/01 08:58:14;;;;;;;38.97;22.13;;;;;;;0.12;94.68;95780.31;5015462;28;20050;-65
2021/01/01 09:00:45;;;;;;;37.70;17.75;;;;;;;0.11;94.51;95784.91;5007122;28;20479;-65
2021/01/01 09:03:12;;;;;;;49.15;27.13;;;;;;;0.18;94.74;95781.72;4973421;28;20041;-65
2021/01/01 09:05:38;;;;;;;42.72;17.75;;;;;;;0.17;94.38;95786.31;5011749;28;20128;-66
2021/01/01 09:08:17;;;;;;;41.15;17.90;;;;;;;0.30;94.76;95791.81;5009203;28;20034;-65
2021/01/01 09:10:47;;;;;;;43.22;23.55;;;;;;;0.47;94.31;95778.28;5016447;28;20056;-66
2021/01/01 09:13:19;;;;;;;35.22;18.23;;;;;;;0.75;94.02;95784.00;5009393;28;20128;-65
2021/01/01 09:15:47;;;;;;;33.35;16.02;;;;;;;1.12;93.52;95783.50;4985842;28;20464;-65
2021/01/01 09:18:13;;;;;;;33.15;15.13;;;;;;;1.50;92.13;95777.94;4995052;28;20042;-65
2021/01/01 09:20:40;;;;;;;26.85;13.60;;;;;;;1.70;89.71;95780.97;5000593;28;20046;-66
2021/01/01 09:23:07;;;;;;;29.30;13.68;;;;;;;1.86;89.89;95784.63;5013060;28;20060;-67
2021/01/01 09:25:33;;;;;;;25.70;13.35;;;;;;;1.87;88.43;95790.78;4998800;28;20081;-67
2021/01/01 09:27:59;;;;;;;25.30;13.18;;;;;;;1.76;88.26;95795.81;4998592;28;20195;-67
2021/01/01 09:30:27;;;;;;;25.83;13.05;;;;;;;1.70;88.88;95789.06;5007891;28;20053;-67
2021/01/01 09:32:55;;;;;;;25.27;13.30;;;;;;;1.62;89.12;95798.81;5007381;28;20502;-67
2021/01/01 09:35:22;;;;;;;30.27;14.68;;;;;;;1.34;90.33;95791.25;5005602;28;20094;-67
2021/01/01 09:37:52;;;;;;;32.17;16.35;;;;;;;1.40;90.87;95802.63;5013266;28;20052;-67
2021/01/01 09:40:19;;;;;;;38.90;17.27;;;;;;;1.38;91.12;95791.38;5008197;28;20064;-67
2021/01/01 09:42:45;;;;;;;34.53;15.68;;;;;;;1.45;91.17;95794.34;5013907;28;20180;-67
2021/01/01 09:45:11;;;;;;;32.05;15.18;;;;;;;1.66;91.43;95788.94;4999531;28;20271;-67
2021/01/01 09:47:37;;;;;;;33.20;16.45;;;;;;;1.97;90.86;95800.41;5017424;28;20037;-66
2021/01/01 09:50:04;;;;;;;32.95;15.85;;;;;;;2.13;88.39;95798.66;4993206;28;20042;-66
2021/01/01 09:52:30;;;;;;;33.17;15.93;;;;;;;2.25;88.44;95800.59;5010564;28;20081;-66
2021/01/01 09:54:55;;;;;;;34.03;18.48;;;;;;;1.80;89.40;95799.47;5018387;28;20601;-65
2021/01/01 09:57:20;;;;;;;35.70;17.02;;;;;;;1.81;89.27;95800.25;4984422;28;20438;-65
2021/01/01 09:59:46;;;;;;;34.28;15.30;;;;;;;1.79;89.22;95805.97;5010256;28;20045;-66
2021/01/01 10:02:11;;;;;;;31.98;15.68;;;;;;;1.90;89.43;95801.72;5010974;28;20053;-66
2021/01/01 10:04:37;;;;;;;31.20;14.93;;;;;;;1.95;88.48;95803.44;5014750;28;20136;-66
2021/01/01 10:07:02;;;;;;;27.10;13.90;;;;;;;1.98;88.38;95801.97;5012382;28;20705;-65
2021/01/01 10:09:27;;;;;;;28.58;14.02;;;;;;;2.05;88.01;95813.84;5008902;28;20053;-66
2021/01/01 10:11:56;;;;;;;26.27;13.70;;;;;;;2.16;88.52;95806.09;5010984;28;20049;-66
2021/01/01 10:14:21;;;;;;;28.65;14.60;;;;;;;2.46;87.67;95814.03;5001027;28;20505;-66
2021/01/01 10:16:47;;;;;;;32.35;13.38;;;;;;;2.64;86.83;95806.50;4986039;28;20042;-66
2021/01/01 10:19:13;;;;;;;24.88;12.85;;;;;;;2.84;86.85;95810.22;5001585;28;20045;-66
2021/01/01 10:21:38;;;;;;;22.60;12.77;;;;;;;2.98;85.46;95807.19;5007987;28;20383;-66
2021/01/01 10:24:04;;;;;;;26.20;12.18;;;;;;;3.15;84.75;95800.75;4987108;28;20136;-65
2021/01/01 10:26:31;;;;;;;22.67;11.93;;;;;;;3.30;83.37;95797.34;5002503;28;20195;-65
2021/01/01 10:28:56;;;;;;;21.02;10.68;;;;;;;3.40;82.83;95796.88;4992609;28;20050;-66
2021/01/01 10:31:23;;;;;;;23.85;11.55;;;;;;;3.48;82.04;95800.56;5012070;28;20465;-66
2021/01/01 10:33:48;;;;;;;24.73;11.07;;;;;;;3.54;81.30;95799.19;5015185;28;20049;-66
2021/01/01 10:36:14;;;;;;;19.85;10.73;;;;;;;3.57;81.15;95792.31;5000134;28;20450;-66
2021/01/01 10:38:40;;;;;;;22.67;10.90;;;;;;;3.54;81.24;95801.13;5016731;28;20053;-66
2021/01/01 10:41:06;;;;;;;24.80;11.82;;;;;;;3.33;82.41;95788.56;5012268;28;20065;-65
2021/01/01 10:43:32;;;;;;;24.52;12.05;;;;;;;3.50;81.24;95798.31;5009581;28;20107;-65
2021/01/01 10:45:58;;;;;;;24.52;12.18;;;;;;;3.56;81.40;95788.03;5002428;28;20077;-65
2021/01/01 10:48:23;;;;;;;24.10;11.50;;;;;;;3.60;80.55;95787.00;5008598;28;20510;-66
2021/01/01 10:50:49;;;;;;;22.15;11.05;;;;;;;3.58;81.12;95794.69;5018690;28;20052;-67
2021/01/01 10:53:14;;;;;;;23.67;11.73;;;;;;;3.44;81.81;95786.94;5008457;28;20045;-65
2021/01/01 10:55:41;;;;;;;21.42;10.23;;;;;;;3.33;82.33;95776.91;5006420;28;20658;-64
2021/01/01 10:58:07;;;;;;;21.13;10.55;;;;;;;3.51;82.12;95774.72;5006034;28;20049;-64
2021/01/01 11:00:33;;;;;;;23.40;10.20;;;;;;;3.67;81.07;95772.06;5000382;28;20046;-65
2021/01/01 11:02:58;;;;;;;23.15;11.30;;;;;;;3.87;80.93;95771.13;5020958;28;20095;-65
2021/01/01 11:05:24;;;;;;;24.05;11.77;;;;;;;4.08;79.54;95770.88;5018717;28;20170;-64
2021/01/01 11:07:49;;;;;;;24.70;11.15;;;;;;;4.01;79.02;95757.91;5019089;28;20049;-64
2021/01/01 11:10:15;;;;;;;20.80;10.40;;;;;;;4.09;79.55;95760.81;5000910;28;20148;-66
2021/01/01 11:12:40;;;;;;;21.08;10.70;;;;;;;4.20;79.20;95759.97;5019203;28;20049;-66
2021/01/01 12:26:43;;;;;;;15.18;7.97;;;;;;;4.93;73.10;95709.03;5008776;28;20088;-65
2021/01/01 12:29:11;;;;;;;15.63;7.70;;;;;;;4.95;73.37;95705.94;5009993;28;20046;-66
2021/01/01 12:31:40;;;;;;;16.35;8.27;;;;;;;4.77;74.73;95697.38;5008171;28;20069;-65
2021/01/01 12:34:06;;;;;;;17.80;8.57;;;;;;;4.49;75.80;95700.25;4994205;28;20052;-65